Capitol Logistics 7315

Operating for MZN



KABE
Lehigh Valley International Airport
Allentown, Pennsylvania
KRFD
Chicago/Rockford International Airport
Rockford, Illinois

Activity Log

Date Flight Route Aircraft Duration
04/18/2021 CPX9916 PSB J60 JOT V171 RFD B738 2h 02m
04/03/2020 CPX322 PSB J60 JOT V171 RFD B763 1h 55m
02/25/2020 CPX322 PSB J60 JOT V171 RFD B763 2h 00m
01/16/2019 CPX410 ETX V30 PSB J60 JOT QUOTE RFD B752 2h 00m

Route Details

Aircraft Information
Primary: Boeing 767-300BDSF
Backup: Airbus A300-600F
Route Data
Distance: 622nm
Duration: 1h 55m
Recm'd Route: ETX V30 PSB J60 MIDST J60 JOT QUOTE RFD
Origin Wx: KABE 020451Z 26004KT 10SM CLR 15/14 A2988 RMK AO2 SLP118 T01500139 402000133 $
Dest. Wx: KRFD 020454Z 00000KT 10SM CLR 17/12 A3017 RMK AO2 SLP212 T01720122 $
Notes: